createdAt,value
2024-03-12T00:00:05.820Z,669.00
2024-03-12T00:01:05.983Z,670.00
2024-03-12T00:02:06.078Z,669.00
2024-03-12T00:03:06.094Z,668.00
2024-03-12T00:58:04.464Z,651.00
2024-03-12T00:59:05.345Z,653.00
2024-03-12T01:00:05.340Z,654.00
2024-03-12T01:01:05.447Z,657.00
2024-03-12T01:02:05.348Z,656.00
2024-03-12T01:03:05.341Z,656.00
2024-03-12T01:04:05.443Z,657.00
2024-03-12T01:05:05.340Z,655.00
2024-03-12T01:06:05.342Z,653.00
2024-03-12T01:07:05.381Z,648.00
2024-03-12T01:08:05.326Z,648.00
2024-03-12T01:09:05.330Z,648.00
2024-03-12T01:10:05.381Z,648.00
2024-03-12T01:11:05.431Z,645.00
2024-03-12T01:12:05.379Z,648.00
2024-03-12T01:13:05.506Z,650.00
2024-03-12T01:14:05.424Z,648.00
2024-03-12T01:15:05.391Z,642.00
2024-03-12T01:16:05.418Z,640.00
2024-03-12T01:17:05.451Z,639.00
2024-03-12T01:18:05.741Z,640.00
2024-03-12T01:19:05.397Z,641.00
2024-03-12T01:20:05.391Z,641.00
2024-03-12T01:21:05.391Z,640.00
2024-03-12T01:22:17.158Z,639.00
2024-03-12T01:23:18.193Z,637.00
2024-03-12T01:24:18.223Z,636.00
2024-03-12T01:25:18.272Z,637.00
2024-03-12T01:26:18.307Z,636.00
2024-03-12T01:27:18.359Z,637.00
2024-03-12T01:28:18.432Z,637.00
2024-03-12T01:29:18.513Z,637.00
2024-03-12T01:30:18.506Z,636.00
2024-03-12T01:31:18.504Z,636.00
2024-03-12T01:32:18.526Z,635.00
2024-03-12T01:33:18.650Z,636.00
2024-03-12T01:34:18.618Z,636.00
2024-03-12T01:35:18.652Z,638.00
2024-03-12T01:36:18.693Z,638.00
2024-03-12T01:37:18.722Z,637.00
2024-03-12T01:38:18.769Z,635.00
2024-03-12T01:39:18.796Z,637.00
2024-03-12T01:40:18.884Z,636.00
2024-03-12T01:41:18.944Z,632.00
2024-03-12T01:42:18.949Z,629.00
2024-03-12T01:43:19.025Z,628.00
2024-03-12T01:44:19.013Z,627.00
2024-03-12T01:45:19.091Z,627.00
2024-03-12T01:46:19.123Z,625.00
2024-03-12T01:47:19.262Z,623.00
2024-03-12T01:48:19.369Z,626.00
2024-03-12T01:49:19.494Z,627.00
2024-03-12T01:50:19.681Z,625.00
2024-03-12T01:51:19.759Z,623.00
2024-03-12T01:52:19.873Z,621.00
2024-03-12T01:53:20.020Z,619.00
2024-03-12T01:54:20.168Z,619.00
2024-03-12T01:55:20.252Z,621.00
2024-03-12T01:56:20.397Z,620.00
2024-03-12T01:57:20.519Z,621.00
2024-03-12T01:58:20.641Z,620.00
2024-03-12T01:59:20.768Z,618.00
2024-03-12T02:00:20.924Z,616.00
2024-03-12T02:01:21.314Z,615.00
2024-03-12T02:02:21.144Z,618.00
2024-03-12T02:03:21.276Z,616.00
2024-03-12T02:04:21.388Z,616.00
2024-03-12T02:05:22.249Z,615.00
2024-03-12T02:06:21.594Z,616.00
2024-03-12T02:07:21.644Z,617.00
2024-03-12T02:08:21.734Z,618.00
2024-03-12T02:09:21.831Z,621.00
2024-03-12T02:10:21.908Z,623.00
2024-03-12T02:11:21.997Z,626.00
2024-03-12T02:12:22.194Z,624.00
2024-03-12T02:13:22.266Z,623.00
2024-03-12T02:14:22.198Z,620.00
2024-03-12T02:15:22.473Z,619.00
2024-03-12T02:16:22.461Z,617.00
2024-03-12T02:17:22.510Z,616.00
2024-03-12T02:18:22.663Z,615.00
2024-03-12T02:19:22.766Z,612.00
2024-03-12T02:20:23.517Z,612.00
2024-03-12T02:21:22.989Z,614.00
2024-03-12T02:22:23.027Z,616.00
2024-03-12T02:23:23.105Z,618.00
2024-03-12T02:24:25.855Z,617.00
2024-03-12T02:25:23.504Z,617.00
2024-03-12T02:26:23.255Z,615.00
2024-03-12T02:27:23.387Z,615.00
2024-03-12T02:28:23.311Z,615.00
2024-03-12T02:29:23.355Z,613.00
2024-03-12T02:30:23.499Z,614.00
2024-03-12T02:31:23.477Z,612.00
2024-03-12T02:32:23.525Z,614.00
2024-03-12T02:33:23.521Z,614.00
2024-03-12T02:34:23.531Z,613.00
2024-03-12T02:35:23.566Z,612.00
2024-03-12T02:36:23.656Z,614.00
2024-03-12T02:37:23.628Z,612.00
2024-03-12T02:38:23.678Z,612.00
2024-03-12T02:39:23.767Z,610.00
2024-03-12T02:40:23.834Z,612.00
2024-03-12T02:41:23.790Z,613.00
2024-03-12T02:42:53.860Z,617.00
2024-03-12T02:43:54.838Z,612.00
2024-03-12T02:44:54.846Z,611.00
2024-03-12T02:45:54.907Z,612.00
2024-03-12T02:46:54.868Z,608.00
2024-03-12T02:47:55.021Z,607.00
2024-03-12T02:48:54.986Z,604.00
2024-03-12T02:49:54.906Z,603.00
2024-03-12T02:50:54.904Z,602.00
2024-03-12T02:51:54.967Z,605.00
2024-03-12T02:52:54.916Z,605.00
2024-03-12T02:53:54.926Z,604.00
2024-03-12T02:54:54.969Z,605.00
2024-03-12T02:55:54.918Z,606.00
2024-03-12T02:56:54.904Z,605.00
2024-03-12T02:57:55.003Z,608.00
2024-03-12T02:58:54.900Z,611.00
2024-03-12T02:59:54.920Z,609.00
2024-03-12T03:00:54.999Z,609.00
2024-03-12T03:01:54.975Z,609.00
2024-03-12T03:02:54.898Z,610.00
2024-03-12T03:03:54.985Z,606.00
2024-03-12T03:04:54.892Z,605.00
2024-03-12T03:05:54.883Z,606.00
2024-03-12T03:06:54.933Z,605.00
2024-03-12T03:07:54.887Z,605.00
2024-03-12T03:08:54.870Z,607.00
2024-03-12T03:09:54.943Z,608.00
2024-03-12T03:10:55.037Z,606.00
2024-03-12T03:11:55.124Z,606.00
2024-03-12T03:12:55.260Z,606.00
2024-03-12T03:13:55.236Z,603.00
2024-03-12T03:14:55.326Z,607.00
2024-03-12T03:15:55.506Z,604.00
2024-03-12T03:16:55.660Z,603.00
2024-03-12T03:17:55.720Z,599.00
2024-03-12T03:18:55.740Z,599.00
2024-03-12T03:19:55.884Z,599.00
2024-03-12T03:20:55.870Z,599.00
2024-03-12T03:21:55.976Z,597.00
2024-03-12T03:22:55.927Z,598.00
2024-03-12T03:23:55.953Z,597.00
2024-03-12T03:24:56.004Z,595.00
2024-03-12T03:25:56.027Z,594.00
2024-03-12T03:26:56.079Z,594.00
2024-03-12T03:27:56.204Z,595.00
2024-03-12T03:28:56.297Z,593.00
2024-03-12T03:29:56.399Z,591.00
2024-03-12T03:30:56.552Z,592.00
2024-03-12T03:31:56.606Z,594.00
2024-03-12T03:32:56.753Z,594.00
2024-03-12T03:33:56.884Z,596.00
2024-03-12T03:34:56.920Z,598.00
2024-03-12T03:35:57.079Z,598.00
2024-03-12T03:36:57.252Z,594.00
2024-03-12T03:37:57.224Z,595.00
2024-03-12T03:38:57.315Z,598.00
2024-03-12T03:39:57.453Z,599.00
2024-03-12T03:40:57.576Z,592.00
2024-03-12T03:41:57.743Z,592.00
2024-03-12T03:42:58.146Z,590.00
2024-03-12T03:43:57.837Z,588.00
2024-03-12T03:44:57.884Z,588.00
2024-03-12T03:45:57.949Z,586.00
2024-03-12T03:46:57.924Z,585.00
2024-03-12T03:47:57.998Z,585.00
2024-03-12T03:48:58.579Z,586.00
2024-03-12T03:49:58.019Z,586.00
2024-03-12T03:50:58.038Z,588.00
2024-03-12T03:51:58.135Z,585.00
2024-03-12T03:52:58.097Z,586.00
2024-03-12T03:53:58.169Z,586.00
2024-03-12T03:54:58.296Z,588.00
2024-03-12T03:55:58.192Z,586.00
2024-03-12T03:56:58.235Z,586.00
2024-03-12T03:57:58.393Z,587.00
2024-03-12T03:58:58.406Z,586.00
2024-03-12T03:59:58.513Z,584.00
2024-03-12T04:00:59.048Z,587.00
2024-03-12T04:01:58.656Z,588.00
2024-03-12T04:02:58.643Z,588.00
2024-03-12T04:03:58.684Z,585.00
2024-03-12T04:04:58.702Z,585.00
2024-03-12T04:05:58.742Z,584.00
2024-03-12T04:06:58.788Z,583.00
2024-03-12T04:07:58.850Z,586.00
2024-03-12T04:08:59.017Z,587.00
2024-03-12T04:09:58.998Z,589.00
2024-03-12T04:10:59.070Z,588.00
2024-03-12T04:12:00.012Z,583.00
2024-03-12T04:12:59.280Z,581.00
2024-03-12T04:13:59.203Z,581.00
2024-03-12T04:14:59.248Z,581.00
2024-03-12T04:15:59.306Z,582.00
2024-03-12T04:16:59.301Z,580.00
2024-03-12T04:17:59.422Z,580.00
2024-03-12T04:18:59.434Z,580.00
2024-03-12T04:20:00.031Z,583.00
2024-03-12T04:20:59.443Z,586.00
2024-03-12T04:22:00.103Z,586.00
2024-03-12T04:23:00.052Z,585.00
2024-03-12T04:24:00.606Z,584.00
2024-03-12T04:24:59.555Z,585.00
2024-03-12T04:25:59.607Z,586.00
2024-03-12T04:27:02.519Z,589.00
2024-03-12T04:28:00.729Z,588.00
2024-03-12T04:28:59.603Z,588.00
2024-03-12T04:29:59.606Z,587.00
2024-03-12T04:31:07.262Z,588.00
2024-03-12T04:32:08.809Z,589.00
2024-03-12T04:33:08.273Z,587.00
2024-03-12T04:34:08.249Z,589.00
2024-03-12T04:35:08.168Z,590.00
2024-03-12T04:36:08.261Z,594.00
2024-03-12T04:37:08.297Z,595.00
2024-03-12T04:38:08.188Z,593.00
2024-03-12T04:39:08.259Z,589.00
2024-03-12T04:40:08.639Z,588.00
2024-03-12T04:41:08.813Z,585.00
2024-03-12T04:42:08.242Z,587.00
2024-03-12T04:43:08.321Z,587.00
2024-03-12T04:44:08.241Z,584.00
2024-03-12T04:45:08.798Z,584.00
2024-03-12T04:46:08.347Z,582.00
2024-03-12T04:47:08.270Z,580.00
2024-03-12T04:48:08.307Z,580.00
2024-03-12T04:49:08.391Z,581.00
2024-03-12T04:50:08.367Z,583.00
2024-03-12T04:51:08.458Z,580.00
2024-03-12T04:52:08.603Z,579.00
2024-03-12T04:53:08.644Z,578.00
2024-03-12T04:54:08.763Z,579.00
2024-03-12T04:55:08.950Z,581.00
2024-03-12T04:56:08.926Z,580.00
2024-03-12T04:57:09.016Z,585.00
2024-03-12T04:58:09.309Z,583.00
2024-03-12T04:59:09.229Z,582.00
2024-03-12T05:00:09.320Z,581.00
2024-03-12T05:01:09.479Z,583.00
2024-03-12T05:02:09.576Z,580.00
2024-03-12T05:03:09.540Z,581.00
2024-03-12T05:04:15.755Z,578.00
2024-03-12T05:05:09.599Z,578.00
2024-03-12T05:06:09.595Z,579.00
2024-03-12T05:07:09.889Z,579.00
2024-03-12T05:08:09.688Z,581.00
2024-03-12T05:09:09.647Z,580.00
2024-03-12T05:10:09.746Z,578.00
2024-03-12T05:11:09.848Z,578.00
2024-03-12T05:12:09.637Z,577.00
2024-03-12T05:13:09.834Z,577.00
2024-03-12T05:14:09.658Z,578.00
2024-03-12T05:15:09.733Z,577.00
2024-03-12T05:16:09.877Z,578.00
2024-03-12T05:17:09.738Z,578.00
2024-03-12T05:18:09.805Z,578.00
2024-03-12T05:19:09.798Z,574.00
2024-03-12T05:20:09.812Z,574.00
2024-03-12T05:21:09.793Z,574.00
2024-03-12T05:22:09.859Z,571.00
2024-03-12T05:23:09.729Z,573.00
2024-03-12T05:24:09.765Z,572.00
2024-03-12T05:25:09.790Z,573.00
2024-03-12T05:26:09.852Z,572.00
2024-03-12T05:27:09.775Z,573.00
2024-03-12T05:28:10.189Z,573.00
2024-03-12T05:29:09.865Z,574.00
2024-03-12T05:30:09.967Z,574.00
2024-03-12T05:31:09.968Z,578.00
2024-03-12T05:32:09.899Z,580.00
2024-03-12T05:33:09.968Z,583.00
2024-03-12T05:34:09.957Z,581.00
2024-03-12T05:35:10.029Z,579.00
2024-03-12T05:36:10.130Z,580.00
2024-03-12T05:37:10.281Z,581.00
2024-03-12T05:38:10.325Z,582.00
2024-03-12T05:39:10.412Z,581.00
2024-03-12T05:40:10.613Z,579.00
2024-03-12T05:41:10.604Z,577.00
2024-03-12T05:42:10.714Z,576.00
2024-03-12T05:43:10.940Z,575.00
2024-03-12T05:44:10.903Z,575.00
2024-03-12T05:45:11.015Z,574.00
2024-03-12T05:46:11.232Z,574.00
2024-03-12T05:47:11.150Z,577.00
2024-03-12T05:48:11.929Z,578.00
2024-03-12T05:49:11.454Z,578.00
2024-03-12T05:50:11.250Z,583.00
2024-03-12T05:51:11.296Z,582.00
2024-03-12T05:52:11.442Z,583.00
2024-03-12T05:53:11.598Z,581.00
2024-03-12T05:54:11.604Z,580.00
2024-03-12T05:55:11.772Z,582.00
2024-03-12T05:56:14.324Z,581.00
2024-03-12T05:57:11.792Z,577.00
2024-03-12T05:58:11.844Z,575.00
2024-03-12T05:59:11.874Z,572.00
2024-03-12T06:00:11.868Z,575.00
2024-03-12T06:01:12.058Z,576.00
2024-03-12T06:02:11.971Z,578.00
2024-03-12T06:03:11.959Z,578.00
2024-03-12T06:04:12.088Z,577.00
2024-03-12T06:05:12.025Z,577.00
2024-03-12T06:06:12.070Z,576.00
2024-03-12T06:07:12.148Z,577.00
2024-03-12T06:08:12.117Z,578.00
2024-03-12T06:09:12.153Z,579.00
2024-03-12T06:10:12.345Z,580.00
2024-03-12T06:11:12.357Z,581.00
2024-03-12T06:12:12.339Z,580.00
2024-03-12T06:13:12.361Z,580.00
2024-03-12T06:14:12.392Z,579.00
2024-03-12T06:15:12.452Z,578.00
2024-03-12T06:16:12.658Z,575.00
2024-03-12T06:17:12.476Z,572.00
2024-03-12T06:18:12.551Z,570.00
2024-03-12T06:19:12.664Z,571.00
2024-03-12T06:20:12.706Z,570.00
2024-03-12T06:21:12.782Z,569.00
2024-03-12T06:22:12.942Z,567.00
2024-03-12T06:23:12.864Z,569.00
2024-03-12T06:24:12.883Z,572.00
2024-03-12T06:25:12.987Z,574.00
2024-03-12T06:26:12.964Z,574.00
2024-03-12T06:27:12.982Z,577.00
2024-03-12T06:28:13.102Z,576.00
2024-03-12T06:29:13.056Z,574.00
2024-03-12T06:30:13.094Z,572.00
2024-03-12T06:31:13.299Z,571.00
2024-03-12T06:32:13.155Z,572.00
2024-03-12T06:33:13.685Z,653.00
2024-03-12T06:34:13.318Z,621.00
2024-03-12T06:35:13.278Z,603.00
2024-03-12T06:36:13.317Z,608.00
2024-03-12T06:37:13.359Z,609.00
2024-03-12T06:38:13.368Z,611.00
2024-03-12T06:39:13.409Z,616.00
2024-03-12T06:40:13.550Z,611.00
2024-03-12T06:41:13.519Z,610.00
2024-03-12T06:42:13.910Z,615.00
2024-03-12T06:43:13.737Z,618.00
2024-03-12T06:44:13.794Z,620.00
2024-03-12T06:45:13.929Z,622.00
2024-03-12T06:46:14.515Z,629.00
2024-03-12T06:47:14.045Z,632.00
2024-03-12T06:48:14.130Z,757.00
2024-03-12T06:49:14.091Z,786.00
2024-03-12T06:50:14.060Z,767.00
2024-03-12T06:51:14.075Z,741.00
2024-03-12T06:52:14.159Z,729.00
2024-03-12T06:53:14.201Z,720.00
2024-03-12T06:54:14.413Z,715.00
2024-03-12T06:55:17.187Z,720.00
2024-03-12T06:56:14.374Z,735.00
2024-03-12T06:57:14.399Z,766.00
2024-03-12T06:58:14.439Z,885.00
2024-03-12T06:59:14.365Z,826.00
2024-03-12T07:00:14.894Z,858.00
2024-03-12T07:01:14.565Z,952.00
2024-03-12T07:02:14.392Z,982.00
2024-03-12T07:03:17.605Z,943.00
2024-03-12T07:04:14.940Z,934.00
2024-03-12T07:05:21.784Z,989.00
2024-03-12T07:06:14.378Z,1005.00
2024-03-12T07:07:14.539Z,1043.00
2024-03-12T07:08:14.415Z,1069.00
2024-03-12T07:09:15.873Z,1171.00
2024-03-12T07:10:14.662Z,1109.00
2024-03-12T07:11:14.544Z,1144.00
2024-03-12T07:12:15.389Z,1160.00
2024-03-12T07:13:14.993Z,1209.00
2024-03-12T07:14:14.911Z,1221.00
2024-03-12T07:15:15.661Z,1293.00
2024-03-12T07:16:14.816Z,1294.00
2024-03-12T07:17:14.750Z,1287.00
2024-03-12T07:18:14.854Z,1295.00
2024-03-12T07:19:14.940Z,1386.00
2024-03-12T07:20:14.834Z,1420.00
2024-03-12T07:21:14.883Z,1432.00
2024-03-12T07:22:14.962Z,1443.00
2024-03-12T07:23:15.389Z,1442.00
2024-03-12T07:24:15.082Z,1493.00
2024-03-12T07:25:15.257Z,1504.00
2024-03-12T07:26:15.438Z,1500.00
2024-03-12T07:27:15.322Z,1544.00
2024-03-12T07:28:15.515Z,1577.00
2024-03-12T07:29:15.910Z,1596.00
2024-03-12T07:30:18.742Z,1640.00
2024-03-12T07:31:15.567Z,1667.00
2024-03-12T07:32:15.507Z,1670.00
2024-03-12T07:33:15.584Z,1675.00
2024-03-12T07:34:18.234Z,1677.00
2024-03-12T07:35:15.495Z,1689.00
2024-03-12T07:36:15.426Z,1697.00
2024-03-12T07:37:15.667Z,1724.00
2024-03-12T07:38:15.401Z,1753.00
2024-03-12T07:39:15.393Z,1779.00
2024-03-12T07:40:15.505Z,1799.00
2024-03-12T07:41:15.681Z,2057.00
2024-03-12T07:42:15.632Z,1917.00
2024-03-12T07:43:15.424Z,1866.00
2024-03-12T07:44:15.281Z,1940.00
2024-03-12T07:45:15.261Z,1922.00
2024-03-12T07:46:15.341Z,1925.00
2024-03-12T07:47:15.404Z,1681.00
2024-03-12T07:48:15.231Z,1187.00
2024-03-12T07:49:16.498Z,1016.00
2024-03-12T07:50:15.408Z,992.00
2024-03-12T07:51:15.241Z,1006.00
2024-03-12T07:52:15.223Z,1019.00
2024-03-12T07:53:15.278Z,1026.00
2024-03-12T07:54:15.369Z,1153.00
2024-03-12T07:55:15.601Z,1295.00
2024-03-12T07:56:15.570Z,1380.00
2024-03-12T07:57:17.569Z,1369.00
2024-03-12T07:58:15.659Z,1385.00
2024-03-12T07:59:19.115Z,1447.00
2024-03-12T08:00:16.370Z,1476.00
2024-03-12T08:01:15.724Z,1497.00
2024-03-12T08:02:15.552Z,1527.00
2024-03-12T08:03:15.539Z,1581.00
2024-03-12T08:04:15.632Z,1602.00
2024-03-12T08:05:16.406Z,1629.00
2024-03-12T08:06:15.479Z,1654.00
2024-03-12T08:07:15.604Z,1668.00
2024-03-12T08:08:15.445Z,1688.00
2024-03-12T08:09:15.445Z,1729.00
2024-03-12T08:10:15.450Z,1751.00
2024-03-12T08:11:15.442Z,1763.00
2024-03-12T08:12:17.786Z,1785.00
2024-03-12T08:13:15.481Z,1836.00
2024-03-12T08:14:15.459Z,1847.00
2024-03-12T08:15:15.902Z,1860.00
2024-03-12T08:16:15.447Z,1878.00
2024-03-12T08:17:15.370Z,1888.00
2024-03-12T08:18:20.772Z,1908.00
2024-03-12T08:19:15.529Z,1942.00
2024-03-12T08:20:15.293Z,1958.00
2024-03-12T08:21:15.273Z,1970.00
2024-03-12T08:22:15.429Z,1977.00
2024-03-12T08:23:15.300Z,1979.00
2024-03-12T08:24:15.243Z,1998.00
2024-03-12T08:25:16.247Z,2015.00
2024-03-12T08:26:15.200Z,2025.00
2024-03-12T08:27:15.156Z,1963.00
2024-03-12T08:28:16.100Z,1903.00
2024-03-12T08:29:15.121Z,1896.00
2024-03-12T08:30:15.092Z,1628.00
2024-03-12T08:31:24.779Z,1246.00
2024-03-12T08:32:15.061Z,972.00
2024-03-12T08:33:16.061Z,856.00
2024-03-12T08:34:15.086Z,914.00
2024-03-12T08:35:14.988Z,878.00
2024-03-12T08:36:14.989Z,756.00
2024-03-12T08:37:15.081Z,762.00
2024-03-12T08:38:15.004Z,747.00
2024-03-12T08:39:15.070Z,650.00
2024-03-12T08:40:15.148Z,658.00
2024-03-12T08:41:15.058Z,709.00
2024-03-12T08:42:15.074Z,713.00
2024-03-12T08:43:15.974Z,789.00
2024-03-12T08:44:15.286Z,807.00
2024-03-12T08:45:15.217Z,808.00
2024-03-12T08:46:15.268Z,800.00
2024-03-12T08:47:15.284Z,795.00
2024-03-12T08:48:15.391Z,812.00
2024-03-12T08:49:15.409Z,833.00
2024-03-12T08:50:15.698Z,838.00
2024-03-12T08:51:15.721Z,827.00
2024-03-12T08:52:15.828Z,849.00
2024-03-12T08:53:16.514Z,848.00
2024-03-12T08:54:15.965Z,1100.00
2024-03-12T08:55:16.053Z,994.00
2024-03-12T08:56:15.749Z,1093.00
2024-03-12T08:57:15.933Z,1150.00
2024-03-12T08:58:16.007Z,1230.00
2024-03-12T08:59:15.985Z,1231.00
2024-03-12T09:00:16.075Z,1182.00
2024-03-12T09:01:16.391Z,1228.00
2024-03-12T09:02:16.286Z,1231.00
2024-03-12T09:03:16.347Z,1301.00
2024-03-12T09:04:16.431Z,1291.00
2024-03-12T09:05:16.449Z,1428.00
2024-03-12T09:06:16.481Z,1377.00
2024-03-12T09:07:16.596Z,1360.00
2024-03-12T09:08:16.757Z,1427.00
2024-03-12T09:09:16.768Z,1421.00
2024-03-12T09:10:16.998Z,1418.00
2024-03-12T09:11:16.784Z,1424.00
2024-03-12T09:12:16.732Z,1439.00
2024-03-12T09:13:16.818Z,1514.00
2024-03-12T09:14:16.824Z,1529.00
2024-03-12T09:15:16.865Z,1532.00
2024-03-12T09:16:16.931Z,1541.00
2024-03-12T09:17:16.977Z,1666.00
2024-03-12T09:18:17.053Z,1639.00
2024-03-12T09:19:17.122Z,1625.00
2024-03-12T09:20:17.245Z,1630.00
2024-03-12T09:21:17.465Z,1855.00
2024-03-12T09:22:17.371Z,1666.00
2024-03-12T09:23:17.289Z,1651.00
2024-03-12T09:24:17.342Z,1442.00
2024-03-12T09:25:19.687Z,1264.00
2024-03-12T09:26:17.439Z,1094.00
2024-03-12T09:27:17.385Z,1069.00
2024-03-12T09:28:17.729Z,1075.00
2024-03-12T09:29:17.309Z,1080.00
2024-03-12T09:30:17.267Z,1081.00
2024-03-12T09:31:17.273Z,1095.00
2024-03-12T09:32:17.230Z,1098.00
2024-03-12T09:33:17.300Z,1103.00
2024-03-12T09:34:17.310Z,1105.00
2024-03-12T09:35:17.166Z,1109.00
2024-03-12T09:36:17.155Z,1116.00
2024-03-12T09:37:17.238Z,1121.00
2024-03-12T09:38:17.448Z,1119.00
2024-03-12T09:39:17.097Z,1119.00
2024-03-12T09:40:17.234Z,1124.00
2024-03-12T09:41:17.039Z,1120.00
2024-03-12T09:42:17.037Z,1116.00
2024-03-12T09:43:17.571Z,1097.00
2024-03-12T09:44:17.044Z,1100.00
2024-03-12T09:45:18.062Z,1247.00
2024-03-12T09:46:17.032Z,1277.00
2024-03-12T09:47:16.967Z,1313.00
2024-03-12T09:48:18.303Z,1336.00
2024-03-12T09:49:17.003Z,1360.00
2024-03-12T09:50:16.892Z,1397.00
2024-03-12T09:51:16.930Z,1507.00
2024-03-12T09:52:16.891Z,1469.00
2024-03-12T09:53:16.856Z,1473.00
2024-03-12T09:54:16.837Z,1485.00
2024-03-12T09:55:17.235Z,1504.00
2024-03-12T09:56:16.884Z,1522.00
2024-03-12T09:57:16.882Z,1543.00
2024-03-12T09:58:16.952Z,1564.00
2024-03-12T09:59:16.983Z,1608.00
2024-03-12T10:00:16.940Z,1653.00
2024-03-12T10:01:17.028Z,1658.00
2024-03-12T10:02:16.988Z,1461.00
2024-03-12T10:03:16.989Z,1225.00
2024-03-12T10:04:16.989Z,1150.00
2024-03-12T10:05:16.999Z,1186.00
2024-03-12T10:06:17.021Z,1316.00
2024-03-12T10:07:17.072Z,1339.00
2024-03-12T10:08:17.083Z,1398.00
2024-03-12T10:09:17.115Z,1459.00
2024-03-12T10:10:17.599Z,1562.00
2024-03-12T10:11:17.201Z,1575.00
2024-03-12T10:12:17.155Z,1561.00
2024-03-12T10:13:17.922Z,1575.00
2024-03-12T10:14:17.171Z,1584.00
2024-03-12T10:15:17.219Z,1603.00
2024-03-12T10:16:17.249Z,1726.00
2024-03-12T10:17:17.228Z,1731.00
2024-03-12T10:18:17.203Z,1324.00
2024-03-12T10:19:17.998Z,1183.00
2024-03-12T10:20:17.735Z,1107.00
2024-03-12T10:21:17.215Z,1048.00
2024-03-12T10:22:17.248Z,1047.00
2024-03-12T10:23:17.219Z,968.00
2024-03-12T10:24:17.458Z,1043.00
2024-03-12T10:25:17.227Z,1023.00
2024-03-12T10:26:17.784Z,1014.00
2024-03-12T10:27:17.222Z,1019.00
2024-03-12T10:28:17.252Z,1005.00
2024-03-12T10:29:17.215Z,996.00
2024-03-12T10:30:17.491Z,981.00
2024-03-12T10:31:17.439Z,979.00
2024-03-12T10:32:17.266Z,974.00
2024-03-12T10:33:17.309Z,966.00
2024-03-12T10:34:17.396Z,1027.00
2024-03-12T10:35:17.363Z,997.00
2024-03-12T10:36:17.431Z,997.00
2024-03-12T10:37:17.508Z,1081.00
2024-03-12T10:38:17.532Z,1070.00
2024-03-12T10:39:18.573Z,1154.00
2024-03-12T10:40:18.235Z,1095.00
2024-03-12T10:41:17.797Z,964.00
2024-03-12T10:42:17.597Z,991.00
2024-03-12T10:43:17.757Z,870.00
2024-03-12T10:44:17.732Z,691.00
2024-03-12T10:45:18.093Z,683.00
2024-03-12T10:46:17.969Z,693.00
2024-03-12T10:47:18.028Z,718.00
2024-03-12T10:48:18.105Z,790.00
2024-03-12T10:49:18.198Z,914.00
2024-03-12T10:50:18.498Z,899.00
2024-03-12T10:51:18.309Z,928.00
2024-03-12T10:52:18.471Z,943.00
2024-03-12T10:53:18.442Z,941.00
2024-03-12T10:54:18.677Z,956.00
2024-03-12T10:55:18.582Z,909.00
2024-03-12T10:56:19.037Z,927.00
2024-03-12T10:57:18.559Z,931.00
2024-03-12T10:58:18.628Z,941.00
2024-03-12T10:59:18.600Z,891.00
2024-03-12T11:00:18.598Z,926.00
2024-03-12T11:01:18.971Z,968.00
2024-03-12T11:02:18.636Z,932.00
2024-03-12T11:03:18.754Z,923.00
2024-03-12T11:04:18.669Z,910.00
2024-03-12T11:05:18.582Z,903.00
2024-03-12T11:06:19.561Z,984.00
2024-03-12T11:07:18.614Z,975.00
2024-03-12T11:08:18.564Z,975.00
2024-03-12T11:09:18.546Z,962.00
2024-03-12T11:10:18.637Z,923.00
2024-03-12T11:11:18.598Z,917.00
2024-03-12T11:12:18.560Z,928.00
2024-03-12T11:13:18.626Z,917.00
2024-03-12T11:14:18.531Z,842.00
2024-03-12T11:15:18.618Z,831.00
2024-03-12T11:16:19.106Z,829.00
2024-03-12T11:17:18.616Z,812.00
2024-03-12T11:18:18.697Z,918.00
2024-03-12T11:19:18.836Z,939.00
2024-03-12T11:20:18.684Z,1029.00
2024-03-12T11:21:18.702Z,1049.00
2024-03-12T11:22:19.009Z,1050.00
2024-03-12T11:23:18.816Z,1089.00
2024-03-12T11:24:18.837Z,1096.00
2024-03-12T11:25:18.947Z,1105.00
2024-03-12T11:26:18.953Z,1170.00
2024-03-12T11:27:19.017Z,1177.00
2024-03-12T11:28:19.042Z,1194.00
2024-03-12T11:29:19.084Z,1224.00
2024-03-12T11:30:19.508Z,1322.00
2024-03-12T11:31:19.256Z,1311.00
2024-03-12T11:32:19.208Z,1027.00
2024-03-12T11:33:19.253Z,953.00
2024-03-12T11:34:19.358Z,850.00
2024-03-12T11:35:19.650Z,776.00
2024-03-12T11:36:19.470Z,775.00
2024-03-12T11:37:19.592Z,776.00
2024-03-12T11:38:19.642Z,767.00
2024-03-12T11:39:19.798Z,756.00
2024-03-12T11:40:20.002Z,751.00
2024-03-12T11:41:19.895Z,741.00
2024-03-12T11:42:20.001Z,728.00
2024-03-12T11:43:20.060Z,724.00
2024-03-12T11:44:20.127Z,714.00
2024-03-12T11:45:20.397Z,702.00
2024-03-12T11:46:20.326Z,697.00
2024-03-12T11:47:20.370Z,693.00
2024-03-12T11:48:20.436Z,690.00
2024-03-12T11:49:20.506Z,693.00
2024-03-12T11:50:22.072Z,695.00
2024-03-12T11:51:20.700Z,751.00
2024-03-12T11:52:20.749Z,820.00
2024-03-12T11:53:20.780Z,935.00
2024-03-12T11:54:20.790Z,937.00
2024-03-12T11:55:20.837Z,932.00
2024-03-12T11:56:20.847Z,940.00
2024-03-12T11:57:20.857Z,961.00
2024-03-12T11:58:20.922Z,990.00
2024-03-12T11:59:20.907Z,1018.00
2024-03-12T12:00:20.968Z,1046.00
2024-03-12T12:01:21.256Z,1065.00
2024-03-12T12:02:21.097Z,1072.00
2024-03-12T12:03:21.200Z,1089.00
2024-03-12T12:04:21.307Z,1111.00
2024-03-12T12:05:21.304Z,1134.00
2024-03-12T12:06:21.415Z,1176.00
2024-03-12T12:07:21.421Z,1192.00
2024-03-12T12:08:21.445Z,1216.00
2024-03-12T12:09:21.514Z,1241.00
2024-03-12T12:10:22.114Z,1250.00
2024-03-12T12:11:21.579Z,1288.00
2024-03-12T12:12:21.814Z,1302.00
2024-03-12T12:13:21.513Z,1293.00
2024-03-12T12:14:21.511Z,1221.00
2024-03-12T12:15:22.015Z,1198.00
2024-03-12T12:16:22.070Z,1181.00
2024-03-12T12:17:21.707Z,1171.00
2024-03-12T12:18:21.783Z,1171.00
2024-03-12T12:19:25.612Z,1173.00
2024-03-12T12:20:22.021Z,1175.00
2024-03-12T12:21:21.832Z,1174.00
2024-03-12T12:22:21.867Z,1171.00
2024-03-12T12:23:21.750Z,1170.00
2024-03-12T12:24:21.701Z,1169.00
2024-03-12T12:25:22.137Z,1165.00
2024-03-12T12:26:21.711Z,1167.00
2024-03-12T12:27:21.586Z,1166.00
2024-03-12T12:28:21.616Z,1168.00
2024-03-12T12:29:21.572Z,1169.00
2024-03-12T12:30:21.552Z,1168.00
2024-03-12T12:31:21.600Z,1162.00
2024-03-12T12:32:21.479Z,1160.00
2024-03-12T12:33:21.428Z,1156.00
2024-03-12T12:34:21.473Z,1155.00
2024-03-12T12:35:22.043Z,1152.00
2024-03-12T12:36:21.374Z,1149.00
2024-03-12T12:37:21.424Z,1145.00
2024-03-12T12:38:21.374Z,1144.00
2024-03-12T12:39:21.595Z,1140.00
2024-03-12T12:40:21.784Z,1139.00
2024-03-12T12:41:21.255Z,1139.00
2024-03-12T12:42:21.639Z,1136.00
2024-03-12T12:43:21.361Z,1131.00
2024-03-12T12:44:21.189Z,1120.00
2024-03-12T12:45:21.524Z,1113.00
2024-03-12T12:46:21.215Z,1107.00
2024-03-12T12:47:21.141Z,1106.00
2024-03-12T12:48:21.109Z,1104.00
2024-03-12T12:49:21.098Z,1104.00
2024-03-12T12:50:21.532Z,1103.00
2024-03-12T12:51:21.558Z,1098.00
2024-03-12T12:52:21.184Z,880.00
2024-03-12T12:53:21.044Z,736.00
2024-03-12T12:54:21.061Z,643.00
2024-03-12T12:55:21.003Z,615.00
2024-03-12T12:56:21.027Z,609.00
2024-03-12T12:57:21.012Z,592.00
2024-03-12T12:58:21.088Z,581.00
2024-03-12T12:59:21.119Z,573.00
2024-03-12T13:00:21.121Z,570.00
2024-03-12T13:01:21.606Z,590.00
2024-03-12T13:02:21.268Z,647.00
2024-03-12T13:03:21.270Z,644.00
2024-03-12T13:04:21.496Z,648.00
2024-03-12T13:05:21.540Z,658.00
2024-03-12T13:06:21.397Z,669.00
2024-03-12T13:07:21.491Z,680.00
2024-03-12T13:08:21.466Z,690.00
2024-03-12T13:09:21.520Z,704.00
2024-03-12T13:10:21.802Z,722.00
2024-03-12T13:11:21.735Z,734.00
2024-03-12T13:12:21.725Z,740.00
2024-03-12T13:13:21.866Z,749.00
2024-03-12T13:14:21.843Z,754.00
2024-03-12T13:15:21.963Z,756.00